sensor_id;sensor_type;location;lat;lon;timestamp;temperature;humidity
6672;DHT22;3372;48.690;12.362;2023-04-24T00:01:40;13.60;67.20
6672;DHT22;3372;48.690;12.362;2023-04-24T00:04:06;13.60;69.90
6672;DHT22;3372;48.690;12.362;2023-04-24T00:06:32;13.70;69.50
6672;DHT22;3372;48.690;12.362;2023-04-24T00:09:00;13.60;70.30
6672;DHT22;3372;48.690;12.362;2023-04-24T00:11:26;13.70;69.00
6672;DHT22;3372;48.690;12.362;2023-04-24T00:13:52;13.80;68.30
6672;DHT22;3372;48.690;12.362;2023-04-24T00:16:18;13.90;67.70
6672;DHT22;3372;48.690;12.362;2023-04-24T00:18:43;13.90;68.10
6672;DHT22;3372;48.690;12.362;2023-04-24T00:21:10;13.90;69.10
6672;DHT22;3372;48.690;12.362;2023-04-24T00:23:36;13.90;67.50
6672;DHT22;3372;48.690;12.362;2023-04-24T00:26:02;13.90;67.20
6672;DHT22;3372;48.690;12.362;2023-04-24T00:28:27;13.90;66.00
6672;DHT22;3372;48.690;12.362;2023-04-24T00:30:53;13.90;67.20
6672;DHT22;3372;48.690;12.362;2023-04-24T00:33:19;14.00;66.80
6672;DHT22;3372;48.690;12.362;2023-04-24T00:35:45;13.90;66.30
6672;DHT22;3372;48.690;12.362;2023-04-24T00:38:11;13.80;69.40
6672;DHT22;3372;48.690;12.362;2023-04-24T00:40:38;13.90;67.70
6672;DHT22;3372;48.690;12.362;2023-04-24T00:43:04;13.90;68.30
6672;DHT22;3372;48.690;12.362;2023-04-24T00:45:29;13.90;67.40
6672;DHT22;3372;48.690;12.362;2023-04-24T00:47:56;13.90;68.50
6672;DHT22;3372;48.690;12.362;2023-04-24T00:50:23;13.90;69.90
6672;DHT22;3372;48.690;12.362;2023-04-24T00:52:49;13.80;68.90
6672;DHT22;3372;48.690;12.362;2023-04-24T00:55:16;13.80;69.50
6672;DHT22;3372;48.690;12.362;2023-04-24T00:57:42;13.80;69.10
6672;DHT22;3372;48.690;12.362;2023-04-24T01:00:08;13.80;69.90
6672;DHT22;3372;48.690;12.362;2023-04-24T01:02:41;13.90;68.20
6672;DHT22;3372;48.690;12.362;2023-04-24T01:05:11;14.00;67.60
6672;DHT22;3372;48.690;12.362;2023-04-24T01:07:40;14.00;67.90
6672;DHT22;3372;48.690;12.362;2023-04-24T01:10:10;14.00;67.70
6672;DHT22;3372;48.690;12.362;2023-04-24T01:12:37;13.90;68.00
6672;DHT22;3372;48.690;12.362;2023-04-24T01:15:03;13.90;67.50
6672;DHT22;3372;48.690;12.362;2023-04-24T01:17:29;13.90;67.50
6672;DHT22;3372;48.690;12.362;2023-04-24T01:19:55;13.90;67.40
6672;DHT22;3372;48.690;12.362;2023-04-24T01:22:22;13.90;68.00
6672;DHT22;3372;48.690;12.362;2023-04-24T01:24:48;13.90;67.20
6672;DHT22;3372;48.690;12.362;2023-04-24T01:27:14;13.90;67.50
6672;DHT22;3372;48.690;12.362;2023-04-24T01:29:41;13.90;67.30
6672;DHT22;3372;48.690;12.362;2023-04-24T01:32:07;13.90;68.30
6672;DHT22;3372;48.690;12.362;2023-04-24T01:34:34;13.90;69.00
6672;DHT22;3372;48.690;12.362;2023-04-24T01:37:01;13.80;69.40
6672;DHT22;3372;48.690;12.362;2023-04-24T01:39:27;13.70;70.20
6672;DHT22;3372;48.690;12.362;2023-04-24T01:41:54;13.80;69.10
6672;DHT22;3372;48.690;12.362;2023-04-24T01:44:21;13.80;71.00
6672;DHT22;3372;48.690;12.362;2023-04-24T01:46:47;13.80;70.20
6672;DHT22;3372;48.690;12.362;2023-04-24T01:49:13;13.80;69.40
6672;DHT22;3372;48.690;12.362;2023-04-24T01:51:38;13.80;69.40
6672;DHT22;3372;48.690;12.362;2023-04-24T01:54:04;13.70;70.40
6672;DHT22;3372;48.690;12.362;2023-04-24T01:56:33;13.60;71.40
6672;DHT22;3372;48.690;12.362;2023-04-24T01:58:59;13.80;70.80
6672;DHT22;3372;48.690;12.362;2023-04-24T02:01:25;13.60;71.70
6672;DHT22;3372;48.690;12.362;2023-04-24T02:03:51;13.80;70.50
6672;DHT22;3372;48.690;12.362;2023-04-24T02:06:17;13.80;70.60
6672;DHT22;3372;48.690;12.362;2023-04-24T02:08:42;13.80;70.70
6672;DHT22;3372;48.690;12.362;2023-04-24T02:11:11;13.80;69.70
6672;DHT22;3372;48.690;12.362;2023-04-24T02:13:36;13.90;69.00
6672;DHT22;3372;48.690;12.362;2023-04-24T02:16:02;13.90;68.80
6672;DHT22;3372;48.690;12.362;2023-04-24T02:18:28;13.90;69.60
6672;DHT22;3372;48.690;12.362;2023-04-24T02:20:54;13.80;69.10
6672;DHT22;3372;48.690;12.362;2023-04-24T02:23:19;13.80;69.30
6672;DHT22;3372;48.690;12.362;2023-04-24T02:25:46;13.70;70.70
6672;DHT22;3372;48.690;12.362;2023-04-24T02:28:12;13.70;71.20
6672;DHT22;3372;48.690;12.362;2023-04-24T02:30:38;13.70;70.10
6672;DHT22;3372;48.690;12.362;2023-04-24T02:33:03;13.70;70.50
6672;DHT22;3372;48.690;12.362;2023-04-24T02:35:29;13.80;69.40
6672;DHT22;3372;48.690;12.362;2023-04-24T02:37:55;13.80;69.30
6672;DHT22;3372;48.690;12.362;2023-04-24T02:40:20;13.80;68.20
6672;DHT22;3372;48.690;12.362;2023-04-24T02:42:46;13.70;69.40
6672;DHT22;3372;48.690;12.362;2023-04-24T02:45:12;13.60;69.80
6672;DHT22;3372;48.690;12.362;2023-04-24T02:47:37;13.70;69.00
6672;DHT22;3372;48.690;12.362;2023-04-24T02:50:05;13.70;68.70
6672;DHT22;3372;48.690;12.362;2023-04-24T02:52:31;13.70;68.60
6672;DHT22;3372;48.690;12.362;2023-04-24T02:54:56;13.80;67.30
6672;DHT22;3372;48.690;12.362;2023-04-24T02:57:22;13.80;68.30
6672;DHT22;3372;48.690;12.362;2023-04-24T02:59:48;13.70;67.80
6672;DHT22;3372;48.690;12.362;2023-04-24T03:02:13;13.70;67.70
6672;DHT22;3372;48.690;12.362;2023-04-24T03:04:40;13.70;67.80
6672;DHT22;3372;48.690;12.362;2023-04-24T03:07:08;13.70;67.40
6672;DHT22;3372;48.690;12.362;2023-04-24T03:09:34;13.70;67.30
6672;DHT22;3372;48.690;12.362;2023-04-24T03:11:59;13.60;67.70
6672;DHT22;3372;48.690;12.362;2023-04-24T03:14:25;13.60;68.50
6672;DHT22;3372;48.690;12.362;2023-04-24T03:16:51;13.60;67.30
6672;DHT22;3372;48.690;12.362;2023-04-24T03:19:20;13.60;68.50
6672;DHT22;3372;48.690;12.362;2023-04-24T03:21:46;13.60;67.40
6672;DHT22;3372;48.690;12.362;2023-04-24T03:24:13;13.60;67.90
6672;DHT22;3372;48.690;12.362;2023-04-24T03:26:40;13.60;68.10
6672;DHT22;3372;48.690;12.362;2023-04-24T03:29:05;13.50;68.60
6672;DHT22;3372;48.690;12.362;2023-04-24T03:31:31;13.60;67.80
6672;DHT22;3372;48.690;12.362;2023-04-24T03:33:56;13.50;69.60
6672;DHT22;3372;48.690;12.362;2023-04-24T03:36:22;13.30;71.00
6672;DHT22;3372;48.690;12.362;2023-04-24T03:38:48;13.30;71.90
6672;DHT22;3372;48.690;12.362;2023-04-24T03:41:13;13.30;72.60
6672;DHT22;3372;48.690;12.362;2023-04-24T03:43:39;13.20;72.80
6672;DHT22;3372;48.690;12.362;2023-04-24T03:46:05;13.30;70.80
6672;DHT22;3372;48.690;12.362;2023-04-24T03:48:32;13.30;71.90
6672;DHT22;3372;48.690;12.362;2023-04-24T03:50:58;13.30;71.20
6672;DHT22;3372;48.690;12.362;2023-04-24T03:53:23;13.30;72.10
6672;DHT22;3372;48.690;12.362;2023-04-24T03:55:49;13.40;70.50
6672;DHT22;3372;48.690;12.362;2023-04-24T03:58:15;13.30;71.10
6672;DHT22;3372;48.690;12.362;2023-04-24T04:00:43;13.40;69.90
6672;DHT22;3372;48.690;12.362;2023-04-24T04:03:09;13.20;70.60
6672;DHT22;3372;48.690;12.362;2023-04-24T04:05:35;13.20;70.80
6672;DHT22;3372;48.690;12.362;2023-04-24T04:08:02;13.20;71.00
6672;DHT22;3372;48.690;12.362;2023-04-24T04:10:30;13.20;70.30
6672;DHT22;3372;48.690;12.362;2023-04-24T04:12:56;13.20;71.60
6672;DHT22;3372;48.690;12.362;2023-04-24T04:15:23;13.20;70.10
6672;DHT22;3372;48.690;12.362;2023-04-24T04:17:51;13.20;71.00
6672;DHT22;3372;48.690;12.362;2023-04-24T04:20:17;13.10;70.80
6672;DHT22;3372;48.690;12.362;2023-04-24T04:22:43;13.10;71.40
6672;DHT22;3372;48.690;12.362;2023-04-24T04:25:09;13.10;70.50
6672;DHT22;3372;48.690;12.362;2023-04-24T04:27:34;13.10;70.00
6672;DHT22;3372;48.690;12.362;2023-04-24T04:30:04;13.00;70.80
6672;DHT22;3372;48.690;12.362;2023-04-24T04:32:32;12.90;70.90
6672;DHT22;3372;48.690;12.362;2023-04-24T04:35:01;13.00;70.80
6672;DHT22;3372;48.690;12.362;2023-04-24T04:37:29;13.00;69.70
6672;DHT22;3372;48.690;12.362;2023-04-24T04:39:54;13.10;69.50
6672;DHT22;3372;48.690;12.362;2023-04-24T04:42:20;12.90;70.70
6672;DHT22;3372;48.690;12.362;2023-04-24T04:44:46;13.00;69.40
6672;DHT22;3372;48.690;12.362;2023-04-24T04:47:11;13.00;69.00
6672;DHT22;3372;48.690;12.362;2023-04-24T04:49:41;13.00;68.90
6672;DHT22;3372;48.690;12.362;2023-04-24T04:52:06;13.00;68.70
6672;DHT22;3372;48.690;12.362;2023-04-24T04:54:32;12.90;69.50
6672;DHT22;3372;48.690;12.362;2023-04-24T04:56:58;13.00;69.60
6672;DHT22;3372;48.690;12.362;2023-04-24T04:59:26;12.90;69.00
6672;DHT22;3372;48.690;12.362;2023-04-24T05:01:52;12.90;68.90
6672;DHT22;3372;48.690;12.362;2023-04-24T05:04:17;12.90;69.70
6672;DHT22;3372;48.690;12.362;2023-04-24T05:06:43;12.90;68.50
6672;DHT22;3372;48.690;12.362;2023-04-24T05:09:09;12.90;70.10
6672;DHT22;3372;48.690;12.362;2023-04-24T05:11:35;12.90;69.80
6672;DHT22;3372;48.690;12.362;2023-04-24T05:14:02;12.80;68.60
6672;DHT22;3372;48.690;12.362;2023-04-24T05:16:28;12.80;69.70
6672;DHT22;3372;48.690;12.362;2023-04-24T05:18:54;12.80;69.50
6672;DHT22;3372;48.690;12.362;2023-04-24T05:21:20;12.90;69.10
6672;DHT22;3372;48.690;12.362;2023-04-24T05:23:46;12.90;68.30
6672;DHT22;3372;48.690;12.362;2023-04-24T05:26:13;12.90;68.00
6672;DHT22;3372;48.690;12.362;2023-04-24T05:28:38;12.90;69.40
6672;DHT22;3372;48.690;12.362;2023-04-24T05:31:04;12.90;69.70
6672;DHT22;3372;48.690;12.362;2023-04-24T05:33:30;12.80;70.00
6672;DHT22;3372;48.690;12.362;2023-04-24T05:35:56;12.80;69.90
6672;DHT22;3372;48.690;12.362;2023-04-24T05:38:21;12.80;69.40
6672;DHT22;3372;48.690;12.362;2023-04-24T05:40:47;12.80;69.60
6672;DHT22;3372;48.690;12.362;2023-04-24T05:43:13;12.80;69.70
6672;DHT22;3372;48.690;12.362;2023-04-24T05:45:38;12.70;70.00
6672;DHT22;3372;48.690;12.362;2023-04-24T05:48:04;12.80;69.30
6672;DHT22;3372;48.690;12.362;2023-04-24T05:50:31;12.80;69.70
6672;DHT22;3372;48.690;12.362;2023-04-24T05:52:56;12.70;71.10
6672;DHT22;3372;48.690;12.362;2023-04-24T05:55:28;12.80;70.80
6672;DHT22;3372;48.690;12.362;2023-04-24T05:57:53;12.80;70.20
6672;DHT22;3372;48.690;12.362;2023-04-24T06:00:19;12.80;70.60
6672;DHT22;3372;48.690;12.362;2023-04-24T06:02:46;12.80;70.40
6672;DHT22;3372;48.690;12.362;2023-04-24T06:05:11;12.80;70.80
6672;DHT22;3372;48.690;12.362;2023-04-24T06:07:37;12.90;70.20
6672;DHT22;3372;48.690;12.362;2023-04-24T06:10:03;12.90;70.00
6672;DHT22;3372;48.690;12.362;2023-04-24T06:12:28;13.00;69.10
6672;DHT22;3372;48.690;12.362;2023-04-24T06:14:54;12.90;69.50
6672;DHT22;3372;48.690;12.362;2023-04-24T06:17:21;12.80;71.80
6672;DHT22;3372;48.690;12.362;2023-04-24T06:19:46;12.90;70.90
6672;DHT22;3372;48.690;12.362;2023-04-24T06:22:12;12.80;71.30
6672;DHT22;3372;48.690;12.362;2023-04-24T06:24:39;12.90;71.30
6672;DHT22;3372;48.690;12.362;2023-04-24T06:27:04;13.00;71.00
6672;DHT22;3372;48.690;12.362;2023-04-24T06:29:30;12.90;71.80
6672;DHT22;3372;48.690;12.362;2023-04-24T06:31:55;12.90;71.60
6672;DHT22;3372;48.690;12.362;2023-04-24T06:34:21;12.80;71.80
6672;DHT22;3372;48.690;12.362;2023-04-24T06:36:47;12.90;71.70
6672;DHT22;3372;48.690;12.362;2023-04-24T06:39:13;12.90;71.80
6672;DHT22;3372;48.690;12.362;2023-04-24T06:41:38;13.00;72.50
6672;DHT22;3372;48.690;12.362;2023-04-24T06:44:05;13.00;72.90
6672;DHT22;3372;48.690;12.362;2023-04-24T06:46:31;13.00;72.30
6672;DHT22;3372;48.690;12.362;2023-04-24T06:48:56;13.00;71.80
6672;DHT22;3372;48.690;12.362;2023-04-24T06:51:26;13.00;72.40
6672;DHT22;3372;48.690;12.362;2023-04-24T06:53:53;13.10;71.70
6672;DHT22;3372;48.690;12.362;2023-04-24T06:56:19;13.20;71.20
6672;DHT22;3372;48.690;12.362;2023-04-24T06:58:45;13.00;71.70
6672;DHT22;3372;48.690;12.362;2023-04-24T07:01:11;13.10;71.20
6672;DHT22;3372;48.690;12.362;2023-04-24T07:03:37;13.20;72.20
6672;DHT22;3372;48.690;12.362;2023-04-24T07:06:03;13.20;72.00
6672;DHT22;3372;48.690;12.362;2023-04-24T07:08:29;13.40;70.70
6672;DHT22;3372;48.690;12.362;2023-04-24T07:10:58;13.30;71.00
6672;DHT22;3372;48.690;12.362;2023-04-24T07:13:24;13.40;70.90
6672;DHT22;3372;48.690;12.362;2023-04-24T07:15:50;13.40;70.20
6672;DHT22;3372;48.690;12.362;2023-04-24T07:18:17;13.40;70.10
6672;DHT22;3372;48.690;12.362;2023-04-24T07:20:43;13.50;69.60
6672;DHT22;3372;48.690;12.362;2023-04-24T07:23:09;13.60;69.60
6672;DHT22;3372;48.690;12.362;2023-04-24T07:25:35;13.60;68.70
6672;DHT22;3372;48.690;12.362;2023-04-24T07:28:01;13.70;68.60
6672;DHT22;3372;48.690;12.362;2023-04-24T07:30:26;13.70;67.90
6672;DHT22;3372;48.690;12.362;2023-04-24T07:32:54;13.80;67.80
6672;DHT22;3372;48.690;12.362;2023-04-24T07:35:20;13.90;69.30
6672;DHT22;3372;48.690;12.362;2023-04-24T07:37:46;13.80;67.50
6672;DHT22;3372;48.690;12.362;2023-04-24T07:40:15;13.90;67.80
6672;DHT22;3372;48.690;12.362;2023-04-24T07:42:42;13.90;68.00
6672;DHT22;3372;48.690;12.362;2023-04-24T07:45:09;14.00;68.20
6672;DHT22;3372;48.690;12.362;2023-04-24T07:47:35;14.00;67.60
6672;DHT22;3372;48.690;12.362;2023-04-24T07:50:02;13.80;66.20
6672;DHT22;3372;48.690;12.362;2023-04-24T07:52:28;14.00;67.70
6672;DHT22;3372;48.690;12.362;2023-04-24T07:54:54;14.30;67.00
6672;DHT22;3372;48.690;12.362;2023-04-24T07:57:24;14.50;65.60
6672;DHT22;3372;48.690;12.362;2023-04-24T07:59:50;14.60;63.90
6672;DHT22;3372;48.690;12.362;2023-04-24T08:02:17;14.40;63.10
6672;DHT22;3372;48.690;12.362;2023-04-24T08:04:43;14.40;62.80
6672;DHT22;3372;48.690;12.362;2023-04-24T08:07:10;14.50;62.20
6672;DHT22;3372;48.690;12.362;2023-04-24T08:09:39;14.50;62.80
6672;DHT22;3372;48.690;12.362;2023-04-24T08:12:05;14.40;62.00
6672;DHT22;3372;48.690;12.362;2023-04-24T08:14:30;14.50;63.20
6672;DHT22;3372;48.690;12.362;2023-04-24T08:16:56;14.60;62.00
6672;DHT22;3372;48.690;12.362;2023-04-24T08:19:22;14.60;62.30
6672;DHT22;3372;48.690;12.362;2023-04-24T08:21:48;14.60;62.30
6672;DHT22;3372;48.690;12.362;2023-04-24T08:24:13;14.40;60.90
6672;DHT22;3372;48.690;12.362;2023-04-24T08:26:39;14.50;60.90
6672;DHT22;3372;48.690;12.362;2023-04-24T08:29:05;14.40;61.70
6672;DHT22;3372;48.690;12.362;2023-04-24T08:31:32;14.30;61.30
6672;DHT22;3372;48.690;12.362;2023-04-24T08:33:58;14.30;61.50
6672;DHT22;3372;48.690;12.362;2023-04-24T08:36:25;14.30;61.70
6672;DHT22;3372;48.690;12.362;2023-04-24T08:38:52;14.30;62.10
6672;DHT22;3372;48.690;12.362;2023-04-24T08:41:18;14.30;62.60
6672;DHT22;3372;48.690;12.362;2023-04-24T08:43:46;14.40;62.10
6672;DHT22;3372;48.690;12.362;2023-04-24T08:46:18;14.50;62.30
6672;DHT22;3372;48.690;12.362;2023-04-24T08:48:45;14.60;62.60
6672;DHT22;3372;48.690;12.362;2023-04-24T08:51:12;14.70;63.30
6672;DHT22;3372;48.690;12.362;2023-04-24T08:53:38;14.70;63.20
6672;DHT22;3372;48.690;12.362;2023-04-24T08:56:05;14.80;63.70
6672;DHT22;3372;48.690;12.362;2023-04-24T08:58:32;14.70;61.60
6672;DHT22;3372;48.690;12.362;2023-04-24T09:01:01;14.80;61.80
6672;DHT22;3372;48.690;12.362;2023-04-24T09:03:28;14.70;59.10
6672;DHT22;3372;48.690;12.362;2023-04-24T09:05:55;14.70;59.70
6672;DHT22;3372;48.690;12.362;2023-04-24T09:08:24;14.60;60.70
6672;DHT22;3372;48.690;12.362;2023-04-24T09:10:51;14.60;61.60
6672;DHT22;3372;48.690;12.362;2023-04-24T09:13:17;14.10;53.10
6672;DHT22;3372;48.690;12.362;2023-04-24T09:15:43;14.10;49.80
6672;DHT22;3372;48.690;12.362;2023-04-24T09:18:11;13.80;46.00
6672;DHT22;3372;48.690;12.362;2023-04-24T09:21:17;13.50;45.50
6672;DHT22;3372;48.690;12.362;2023-04-24T09:24:07;13.30;50.20
6672;DHT22;3372;48.690;12.362;2023-04-24T09:26:37;13.50;50.50
6672;DHT22;3372;48.690;12.362;2023-04-24T09:29:03;13.60;51.90
6672;DHT22;3372;48.690;12.362;2023-04-24T09:31:30;13.60;51.70
6672;DHT22;3372;48.690;12.362;2023-04-24T09:34:14;13.50;52.10
6672;DHT22;3372;48.690;12.362;2023-04-24T09:36:42;13.50;50.20
6672;DHT22;3372;48.690;12.362;2023-04-24T09:39:13;13.50;50.10
6672;DHT22;3372;48.690;12.362;2023-04-24T09:41:52;13.50;48.60
6672;DHT22;3372;48.690;12.362;2023-04-24T09:47:09;13.50;48.50
6672;DHT22;3372;48.690;12.362;2023-04-24T09:49:35;13.80;50.60
6672;DHT22;3372;48.690;12.362;2023-04-24T09:54:36;13.80;50.30
6672;DHT22;3372;48.690;12.362;2023-04-24T09:57:09;14.10;50.20
6672;DHT22;3372;48.690;12.362;2023-04-24T09:59:34;14.30;48.10
6672;DHT22;3372;48.690;12.362;2023-04-24T10:02:00;14.80;50.40
6672;DHT22;3372;48.690;12.362;2023-04-24T10:04:27;14.90;49.30
6672;DHT22;3372;48.690;12.362;2023-04-24T10:06:55;15.00;47.70
6672;DHT22;3372;48.690;12.362;2023-04-24T10:09:26;15.20;48.60
6672;DHT22;3372;48.690;12.362;2023-04-24T10:11:53;15.40;44.20
6672;DHT22;3372;48.690;12.362;2023-04-24T10:14:24;15.40;41.00
6672;DHT22;3372;48.690;12.362;2023-04-24T10:16:53;15.50;38.40
6672;DHT22;3372;48.690;12.362;2023-04-24T10:19:19;15.60;39.30
6672;DHT22;3372;48.690;12.362;2023-04-24T10:21:46;15.30;34.90
6672;DHT22;3372;48.690;12.362;2023-04-24T10:24:17;15.30;33.50
6672;DHT22;3372;48.690;12.362;2023-04-24T10:26:44;15.40;36.30
6672;DHT22;3372;48.690;12.362;2023-04-24T10:29:14;15.50;33.10
6672;DHT22;3372;48.690;12.362;2023-04-24T10:31:43;15.60;36.00
6672;DHT22;3372;48.690;12.362;2023-04-24T10:34:11;15.50;30.40
6672;DHT22;3372;48.690;12.362;2023-04-24T10:36:51;15.50;32.60
6672;DHT22;3372;48.690;12.362;2023-04-24T10:39:18;15.60;33.20
6672;DHT22;3372;48.690;12.362;2023-04-24T10:41:45;15.70;32.10
6672;DHT22;3372;48.690;12.362;2023-04-24T10:44:14;15.70;31.80
6672;DHT22;3372;48.690;12.362;2023-04-24T10:46:45;15.80;32.40
6672;DHT22;3372;48.690;12.362;2023-04-24T10:49:11;15.50;30.10
6672;DHT22;3372;48.690;12.362;2023-04-24T10:51:50;15.60;33.90
6672;DHT22;3372;48.690;12.362;2023-04-24T10:54:34;15.60;31.50
6672;DHT22;3372;48.690;12.362;2023-04-24T11:00:09;16.00;35.80
6672;DHT22;3372;48.690;12.362;2023-04-24T11:02:39;16.10;34.10
6672;DHT22;3372;48.690;12.362;2023-04-24T11:05:06;16.10;33.00
6672;DHT22;3372;48.690;12.362;2023-04-24T11:10:44;15.90;31.50
6672;DHT22;3372;48.690;12.362;2023-04-24T11:13:10;15.90;29.70
6672;DHT22;3372;48.690;12.362;2023-04-24T11:15:36;15.60;29.50
6672;DHT22;3372;48.690;12.362;2023-04-24T11:18:01;15.70;28.20
6672;DHT22;3372;48.690;12.362;2023-04-24T11:20:28;15.90;29.30
6672;DHT22;3372;48.690;12.362;2023-04-24T11:22:54;16.00;30.40
6672;DHT22;3372;48.690;12.362;2023-04-24T11:25:21;16.00;29.00
6672;DHT22;3372;48.690;12.362;2023-04-24T11:27:48;16.10;28.40
6672;DHT22;3372;48.690;12.362;2023-04-24T11:30:19;16.20;28.30
6672;DHT22;3372;48.690;12.362;2023-04-24T11:32:48;16.10;29.00
6672;DHT22;3372;48.690;12.362;2023-04-24T11:35:22;16.40;29.70
6672;DHT22;3372;48.690;12.362;2023-04-24T11:37:53;16.30;24.90
6672;DHT22;3372;48.690;12.362;2023-04-24T11:40:20;15.80;27.00
6672;DHT22;3372;48.690;12.362;2023-04-24T11:42:49;15.90;27.90
6672;DHT22;3372;48.690;12.362;2023-04-24T11:45:25;15.70;27.40
6672;DHT22;3372;48.690;12.362;2023-04-24T11:47:51;15.50;25.50
6672;DHT22;3372;48.690;12.362;2023-04-24T11:50:18;15.30;25.60
6672;DHT22;3372;48.690;12.362;2023-04-24T11:52:46;15.00;28.10
6672;DHT22;3372;48.690;12.362;2023-04-24T11:58:00;14.30;39.10
6672;DHT22;3372;48.690;12.362;2023-04-24T12:00:28;14.30;39.00
6672;DHT22;3372;48.690;12.362;2023-04-24T12:03:08;14.20;40.00
6672;DHT22;3372;48.690;12.362;2023-04-24T12:05:34;14.40;41.90
6672;DHT22;3372;48.690;12.362;2023-04-24T12:08:00;14.40;40.10
6672;DHT22;3372;48.690;12.362;2023-04-24T12:10:27;14.40;39.60
6672;DHT22;3372;48.690;12.362;2023-04-24T12:12:54;14.40;39.90
6672;DHT22;3372;48.690;12.362;2023-04-24T12:15:21;14.40;39.10
6672;DHT22;3372;48.690;12.362;2023-04-24T12:17:47;14.50;39.60
6672;DHT22;3372;48.690;12.362;2023-04-24T12:20:14;14.60;39.50
6672;DHT22;3372;48.690;12.362;2023-04-24T12:22:59;14.80;38.60
6672;DHT22;3372;48.690;12.362;2023-04-24T12:25:32;15.00;39.90
6672;DHT22;3372;48.690;12.362;2023-04-24T12:30:32;15.40;36.10
6672;DHT22;3372;48.690;12.362;2023-04-24T12:33:00;15.40;35.50
6672;DHT22;3372;48.690;12.362;2023-04-24T12:35:28;15.30;31.20
6672;DHT22;3372;48.690;12.362;2023-04-24T12:37:54;15.30;31.50
6672;DHT22;3372;48.690;12.362;2023-04-24T12:40:21;15.00;31.90
6672;DHT22;3372;48.690;12.362;2023-04-24T12:42:49;15.10;33.70
6672;DHT22;3372;48.690;12.362;2023-04-24T12:45:16;15.10;33.70
6672;DHT22;3372;48.690;12.362;2023-04-24T12:47:43;15.20;32.60
6672;DHT22;3372;48.690;12.362;2023-04-24T12:50:12;15.30;33.70
6672;DHT22;3372;48.690;12.362;2023-04-24T12:52:38;15.30;32.30
6672;DHT22;3372;48.690;12.362;2023-04-24T12:55:05;15.40;31.60
6672;DHT22;3372;48.690;12.362;2023-04-24T12:57:35;15.60;33.30
6672;DHT22;3372;48.690;12.362;2023-04-24T13:00:01;15.60;34.00
6672;DHT22;3372;48.690;12.362;2023-04-24T13:02:29;15.40;31.10
6672;DHT22;3372;48.690;12.362;2023-04-24T13:04:56;15.40;31.70
6672;DHT22;3372;48.690;12.362;2023-04-24T13:07:22;15.50;31.90
6672;DHT22;3372;48.690;12.362;2023-04-24T13:09:50;15.60;31.80
6672;DHT22;3372;48.690;12.362;2023-04-24T13:12:16;15.60;30.20
6672;DHT22;3372;48.690;12.362;2023-04-24T13:14:44;15.60;29.50
6672;DHT22;3372;48.690;12.362;2023-04-24T13:17:09;15.50;29.60
6672;DHT22;3372;48.690;12.362;2023-04-24T13:19:38;15.40;29.50
6672;DHT22;3372;48.690;12.362;2023-04-24T13:22:04;15.30;30.00
6672;DHT22;3372;48.690;12.362;2023-04-24T13:24:31;15.40;29.10
6672;DHT22;3372;48.690;12.362;2023-04-24T13:26:57;15.50;28.80
6672;DHT22;3372;48.690;12.362;2023-04-24T13:29:23;15.70;29.60
6672;DHT22;3372;48.690;12.362;2023-04-24T13:31:52;15.60;26.60
6672;DHT22;3372;48.690;12.362;2023-04-24T13:34:25;15.30;25.40
6672;DHT22;3372;48.690;12.362;2023-04-24T13:36:53;15.00;27.40
6672;DHT22;3372;48.690;12.362;2023-04-24T13:39:19;15.10;27.50
6672;DHT22;3372;48.690;12.362;2023-04-24T13:41:45;14.80;27.10
6672;DHT22;3372;48.690;12.362;2023-04-24T13:44:12;14.60;27.40
6672;DHT22;3372;48.690;12.362;2023-04-24T13:46:38;14.50;28.80
6672;DHT22;3372;48.690;12.362;2023-04-24T13:49:03;14.60;28.70
6672;DHT22;3372;48.690;12.362;2023-04-24T13:51:30;14.60;26.90
6672;DHT22;3372;48.690;12.362;2023-04-24T13:53:55;14.70;26.30
6672;DHT22;3372;48.690;12.362;2023-04-24T13:56:22;14.80;25.10
6672;DHT22;3372;48.690;12.362;2023-04-24T13:58:48;14.90;23.60
6672;DHT22;3372;48.690;12.362;2023-04-24T14:01:14;15.10;24.10
6672;DHT22;3372;48.690;12.362;2023-04-24T14:03:41;15.20;22.70
6672;DHT22;3372;48.690;12.362;2023-04-24T14:06:08;14.90;22.30
6672;DHT22;3372;48.690;12.362;2023-04-24T14:08:34;14.90;21.50
6672;DHT22;3372;48.690;12.362;2023-04-24T14:10:59;14.60;20.70
6672;DHT22;3372;48.690;12.362;2023-04-24T14:13:25;14.70;20.10
6672;DHT22;3372;48.690;12.362;2023-04-24T14:15:51;14.70;21.70
6672;DHT22;3372;48.690;12.362;2023-04-24T14:18:18;14.80;20.70
6672;DHT22;3372;48.690;12.362;2023-04-24T14:20:44;14.90;20.60
6672;DHT22;3372;48.690;12.362;2023-04-24T14:23:10;15.10;20.60
6672;DHT22;3372;48.690;12.362;2023-04-24T14:25:35;15.30;21.30
6672;DHT22;3372;48.690;12.362;2023-04-24T14:28:01;15.20;19.80
6672;DHT22;3372;48.690;12.362;2023-04-24T14:30:29;15.30;21.40
6672;DHT22;3372;48.690;12.362;2023-04-24T14:32:55;15.10;17.70
6672;DHT22;3372;48.690;12.362;2023-04-24T14:35:21;15.00;18.70
6672;DHT22;3372;48.690;12.362;2023-04-24T14:37:47;14.80;16.20
6672;DHT22;3372;48.690;12.362;2023-04-24T14:40:13;14.80;17.90
6672;DHT22;3372;48.690;12.362;2023-04-24T14:42:39;14.90;18.60
6672;DHT22;3372;48.690;12.362;2023-04-24T14:45:05;14.90;17.20
6672;DHT22;3372;48.690;12.362;2023-04-24T14:47:31;14.90;17.50
6672;DHT22;3372;48.690;12.362;2023-04-24T14:49:56;15.00;18.50
6672;DHT22;3372;48.690;12.362;2023-04-24T14:52:22;14.90;17.10
6672;DHT22;3372;48.690;12.362;2023-04-24T14:54:47;14.90;17.00
6672;DHT22;3372;48.690;12.362;2023-04-24T14:57:13;15.00;17.90
6672;DHT22;3372;48.690;12.362;2023-04-24T14:59:38;15.00;18.00
6672;DHT22;3372;48.690;12.362;2023-04-24T15:02:05;14.90;17.10
6672;DHT22;3372;48.690;12.362;2023-04-24T15:04:30;15.00;18.00
6672;DHT22;3372;48.690;12.362;2023-04-24T15:06:56;15.10;15.60
6672;DHT22;3372;48.690;12.362;2023-04-24T15:09:23;15.10;15.90
6672;DHT22;3372;48.690;12.362;2023-04-24T15:11:49;14.90;15.10
6672;DHT22;3372;48.690;12.362;2023-04-24T15:14:16;14.90;14.60
6672;DHT22;3372;48.690;12.362;2023-04-24T15:16:42;14.90;16.40
6672;DHT22;3372;48.690;12.362;2023-04-24T15:19:08;14.90;15.80
6672;DHT22;3372;48.690;12.362;2023-04-24T15:21:35;14.80;15.80
6672;DHT22;3372;48.690;12.362;2023-04-24T15:24:00;14.80;16.50
6672;DHT22;3372;48.690;12.362;2023-04-24T15:26:26;15.00;15.40
6672;DHT22;3372;48.690;12.362;2023-04-24T15:28:52;14.90;15.90
6672;DHT22;3372;48.690;12.362;2023-04-24T15:31:18;14.80;15.90
6672;DHT22;3372;48.690;12.362;2023-04-24T15:33:44;14.80;14.30
6672;DHT22;3372;48.690;12.362;2023-04-24T15:36:10;14.80;14.50
6672;DHT22;3372;48.690;12.362;2023-04-24T15:38:38;14.80;16.00
6672;DHT22;3372;48.690;12.362;2023-04-24T15:41:04;14.80;15.60
6672;DHT22;3372;48.690;12.362;2023-04-24T15:43:29;14.60;13.80
6672;DHT22;3372;48.690;12.362;2023-04-24T15:45:57;14.80;13.70
6672;DHT22;3372;48.690;12.362;2023-04-24T15:48:22;14.90;14.60
6672;DHT22;3372;48.690;12.362;2023-04-24T15:50:48;14.70;14.30
6672;DHT22;3372;48.690;12.362;2023-04-24T15:53:14;14.80;14.30
6672;DHT22;3372;48.690;12.362;2023-04-24T15:55:48;14.80;13.90
6672;DHT22;3372;48.690;12.362;2023-04-24T15:58:14;14.50;14.40
6672;DHT22;3372;48.690;12.362;2023-04-24T16:00:40;14.70;15.40